createdAt,value
2022-10-23T00:04:44.209Z,13.61
2022-10-23T00:09:47.489Z,13.96
2022-10-23T00:14:50.237Z,13.91
2022-10-23T00:19:52.991Z,14.16
2022-10-23T00:24:55.761Z,13.28
2022-10-23T00:29:58.867Z,14.48
2022-10-23T00:35:01.655Z,14.49
2022-10-23T00:40:05.826Z,14.57
2022-10-23T00:45:15.150Z,14.59
2022-10-23T00:50:44.260Z,14.53
2022-10-23T00:55:49.599Z,14.60
2022-10-23T01:00:57.730Z,14.55
2022-10-23T01:12:43.001Z,14.46
2022-10-23T01:18:05.812Z,14.37
2022-10-23T01:23:15.501Z,14.64
2022-10-23T01:28:50.694Z,14.73
2022-10-23T01:41:03.935Z,14.38
2022-10-23T01:46:36.302Z,14.70
2022-10-23T01:58:29.432Z,14.89
2022-10-23T02:03:42.763Z,14.53
2022-10-23T02:22:29.639Z,14.83
2022-10-23T02:27:43.385Z,14.40
2022-10-23T02:32:49.825Z,14.82
2022-10-23T02:38:01.096Z,14.76
2022-10-23T02:49:51.332Z,14.80
2022-10-23T03:07:53.139Z,14.73
2022-10-23T03:12:59.809Z,14.20
2022-10-23T03:24:55.322Z,14.66
2022-10-23T03:29:58.446Z,14.61
2022-10-23T03:35:01.292Z,14.06
2022-10-23T03:40:05.422Z,14.09
2022-10-23T03:45:14.027Z,14.14
2022-10-23T03:50:17.148Z,14.30
2022-10-23T03:55:20.064Z,13.94
2022-10-23T04:00:30.893Z,14.29
2022-10-23T04:05:33.714Z,14.26
2022-10-23T04:10:36.816Z,14.20
2022-10-23T04:15:39.570Z,13.78
2022-10-23T04:27:41.683Z,14.41
2022-10-23T04:32:44.733Z,14.38
2022-10-23T04:38:07.499Z,14.57
2022-10-23T04:43:10.242Z,13.83
2022-10-23T04:48:13.037Z,14.60
2022-10-23T04:53:16.548Z,14.42
2022-10-23T04:58:19.631Z,14.50
2022-10-23T05:03:23.622Z,14.62
2022-10-23T05:08:26.452Z,14.65
2022-10-23T05:13:29.376Z,14.66
2022-10-23T05:18:47.538Z,14.69
2022-10-23T05:23:50.643Z,14.51
2022-10-23T05:28:53.518Z,14.81
2022-10-23T05:33:57.494Z,13.66
2022-10-23T05:46:00.402Z,14.86
2022-10-23T05:51:07.744Z,14.84
2022-10-23T05:56:10.675Z,14.92
2022-10-23T06:01:15.412Z,15.15
2022-10-23T06:06:18.250Z,14.22
2022-10-23T06:11:21.431Z,15.26
2022-10-23T06:16:28.604Z,15.32
2022-10-23T06:21:31.311Z,14.89
2022-10-23T06:26:34.843Z,15.23
2022-10-23T06:31:37.593Z,15.14
2022-10-23T06:36:40.487Z,14.47
2022-10-23T06:41:45.170Z,15.48
2022-10-23T06:46:48.390Z,15.65
2022-10-23T06:51:51.151Z,15.57
2022-10-23T06:56:54.415Z,15.98
2022-10-23T07:01:57.448Z,15.65
2022-10-23T07:07:00.670Z,16.37
2022-10-23T07:12:03.401Z,15.96
2022-10-23T07:17:07.036Z,16.20
2022-10-23T07:22:12.042Z,16.60
2022-10-23T07:27:17.732Z,16.52
2022-10-23T07:32:20.919Z,16.53
2022-10-23T07:37:26.379Z,16.89
2022-10-23T07:42:29.375Z,17.11
2022-10-23T07:47:33.452Z,17.23
2022-10-23T07:52:37.248Z,17.67
2022-10-23T08:04:44.459Z,17.52
2022-10-23T08:09:47.364Z,17.78
2022-10-23T08:14:50.123Z,17.73
2022-10-23T08:19:53.020Z,17.22
2022-10-23T08:24:55.755Z,18.13
2022-10-23T08:29:58.652Z,17.90
2022-10-23T08:35:01.612Z,18.27
2022-10-23T08:40:05.202Z,17.84
2022-10-23T08:51:56.910Z,18.61
2022-10-23T09:23:38.588Z,18.83
2022-10-23T09:35:00.161Z,18.93
2022-10-23T09:40:19.798Z,18.79
2022-10-23T09:51:42.654Z,19.09
2022-10-23T09:56:49.691Z,19.41
2022-10-23T10:01:55.829Z,18.98
2022-10-23T10:14:28.914Z,19.12
2022-10-23T10:26:24.724Z,19.08
2022-10-23T10:31:53.757Z,18.93
2022-10-23T10:37:27.564Z,19.32
2022-10-23T10:42:42.318Z,19.51
2022-10-23T10:48:11.969Z,19.30
2022-10-23T10:53:33.446Z,19.41
2022-10-23T10:58:51.502Z,19.34
2022-10-23T11:04:05.575Z,19.28
2022-10-23T11:09:29.196Z,19.18
2022-10-23T11:14:34.957Z,19.31
2022-10-23T11:19:58.483Z,19.55
2022-10-23T11:25:26.122Z,19.41
2022-10-23T11:30:43.597Z,19.64
2022-10-23T11:36:05.226Z,19.48
2022-10-23T11:41:22.260Z,19.27
2022-10-23T11:46:28.202Z,19.14
2022-10-23T11:51:41.244Z,18.41
2022-10-23T11:57:14.715Z,19.66
2022-10-23T12:02:24.717Z,19.46
2022-10-23T12:07:35.384Z,18.68
2022-10-23T12:12:43.388Z,19.71
2022-10-23T12:17:47.821Z,19.56
2022-10-23T12:23:38.301Z,19.82
2022-10-23T12:28:52.266Z,19.46
2022-10-23T12:34:04.119Z,19.92
2022-10-23T12:39:26.672Z,19.64
2022-10-23T12:44:30.638Z,19.61
2022-10-23T12:49:35.063Z,19.38
2022-10-23T12:54:40.728Z,19.69
2022-10-23T12:59:43.623Z,18.95
2022-10-23T13:04:46.810Z,18.96
2022-10-23T13:09:50.347Z,19.39
2022-10-23T13:15:01.253Z,19.39
2022-10-23T13:20:19.205Z,19.76
2022-10-23T13:25:22.503Z,19.91
2022-10-23T13:30:34.459Z,19.62
2022-10-23T13:35:38.223Z,19.12
2022-10-23T13:40:40.928Z,19.76
2022-10-23T13:45:48.517Z,19.23
2022-10-23T13:50:51.488Z,18.67
2022-10-23T13:55:58.718Z,18.67
2022-10-23T14:01:06.766Z,19.37
2022-10-23T14:06:09.578Z,19.00
2022-10-23T14:16:22.290Z,19.59
2022-10-23T14:21:31.009Z,18.55
2022-10-23T14:31:57.995Z,18.89
2022-10-23T14:37:09.290Z,18.49
2022-10-23T14:42:13.393Z,18.81
2022-10-23T14:47:16.348Z,17.63
2022-10-23T14:52:24.481Z,18.91
2022-10-23T14:57:27.227Z,17.27
2022-10-23T15:02:30.100Z,18.08
2022-10-23T15:07:33.042Z,18.58
2022-10-23T15:12:40.664Z,18.30
2022-10-23T15:22:52.651Z,18.39
2022-10-23T15:28:09.418Z,18.47
2022-10-23T15:33:17.713Z,18.22
2022-10-23T15:38:24.288Z,18.43
2022-10-23T15:43:28.010Z,18.14
2022-10-23T15:48:31.654Z,17.72
2022-10-23T15:53:35.331Z,17.47
2022-10-23T15:58:38.848Z,16.92
2022-10-23T16:03:42.751Z,18.03
2022-10-23T16:08:46.878Z,17.05
2022-10-23T16:14:00.106Z,17.85
2022-10-23T16:19:13.945Z,16.74
2022-10-23T16:24:17.686Z,16.58
2022-10-23T16:29:25.259Z,17.41
2022-10-23T16:34:29.529Z,17.53
2022-10-23T16:39:33.050Z,17.11
2022-10-23T16:44:36.804Z,16.96
2022-10-23T16:49:40.358Z,16.59
2022-10-23T16:54:45.054Z,16.98
2022-10-23T16:59:48.536Z,17.18
2022-10-23T17:04:52.237Z,16.61
2022-10-23T17:09:55.737Z,15.77
2022-10-23T17:14:59.381Z,16.04
2022-10-23T17:20:03.901Z,16.27
2022-10-23T17:25:08.301Z,15.46
2022-10-23T17:30:31.227Z,16.00
2022-10-23T17:35:34.665Z,16.19
2022-10-23T17:40:38.180Z,15.55
2022-10-23T17:45:45.844Z,15.30
2022-10-23T17:50:50.617Z,14.80
2022-10-23T17:55:54.032Z,14.27
2022-10-23T18:00:58.019Z,14.41
2022-10-23T18:06:16.214Z,15.19
2022-10-23T18:11:26.186Z,14.27
2022-10-23T18:16:30.406Z,14.18
2022-10-23T18:21:35.621Z,15.22
2022-10-23T18:26:42.100Z,15.20
2022-10-23T18:31:46.517Z,14.87
2022-10-23T18:36:51.868Z,15.11
2022-10-23T18:41:58.933Z,14.85
2022-10-23T18:47:02.601Z,14.82
2022-10-23T18:52:06.869Z,14.72
2022-10-23T18:57:10.259Z,13.68
2022-10-23T19:02:13.724Z,14.68
2022-10-23T19:07:17.368Z,13.67
2022-10-23T19:12:20.830Z,14.48
2022-10-23T19:17:33.036Z,13.95
2022-10-23T19:22:38.434Z,12.99
2022-10-23T19:27:44.789Z,13.81
2022-10-23T19:32:49.301Z,13.98
2022-10-23T19:37:52.852Z,14.35
2022-10-23T19:43:01.816Z,13.86
2022-10-23T19:48:05.561Z,13.57
2022-10-23T19:53:09.177Z,12.67
2022-10-23T19:58:12.755Z,13.02
2022-10-23T20:03:16.906Z,12.79
2022-10-23T20:08:20.396Z,13.75
2022-10-23T20:13:23.954Z,13.27
2022-10-23T20:18:27.643Z,13.27
2022-10-23T20:23:31.233Z,13.40
2022-10-23T20:28:34.896Z,13.52
2022-10-23T20:33:40.086Z,12.88
2022-10-23T20:38:43.722Z,13.63
2022-10-23T20:43:47.392Z,13.40
2022-10-23T20:48:52.304Z,12.39
2022-10-23T20:53:55.796Z,13.21
2022-10-23T20:59:06.447Z,13.30
2022-10-23T21:04:20.669Z,12.99
2022-10-23T21:09:25.405Z,12.76
2022-10-23T21:14:29.626Z,13.45
2022-10-23T21:19:33.249Z,13.36
2022-10-23T21:24:36.902Z,13.09
2022-10-23T21:29:40.660Z,13.44
2022-10-23T21:34:44.165Z,12.34
2022-10-23T21:39:57.708Z,12.92
2022-10-23T21:45:01.350Z,12.67
2022-10-23T21:50:05.786Z,13.45
2022-10-23T21:55:09.891Z,13.40
2022-10-23T22:00:17.736Z,12.13
2022-10-23T22:05:21.182Z,12.70
2022-10-23T22:10:28.349Z,13.28
2022-10-23T22:15:31.841Z,13.17
2022-10-23T22:20:35.410Z,13.84
2022-10-23T22:25:39.373Z,14.10
2022-10-23T22:30:42.989Z,13.24
2022-10-23T22:35:46.661Z,13.74
2022-10-23T22:46:09.301Z,14.21
2022-10-23T22:51:18.476Z,13.81
2022-10-23T22:56:24.512Z,13.49
2022-10-23T23:01:40.393Z,13.76
2022-10-23T23:06:43.940Z,13.93
2022-10-23T23:11:54.658Z,13.76
2022-10-23T23:16:58.133Z,13.85
2022-10-23T23:22:05.374Z,13.30
2022-10-23T23:27:09.118Z,13.23
2022-10-23T23:32:15.746Z,13.62
2022-10-23T23:37:22.080Z,13.03
2022-10-23T23:42:25.892Z,12.29
2022-10-23T23:47:29.715Z,12.67
2022-10-23T23:52:33.446Z,12.93
2022-10-23T23:57:37.206Z,13.65
